Impacts METAR Board
IDs:

KDTW - Detroit Metro/Wayne, MI, US

Updated at: 0100 UTC 31 May 2020
Potential Impact None Slight Moderate High
Time 30/13Z 30/14Z 30/15Z 30/16Z 30/17Z 30/18Z 30/19Z 30/20Z 30/21Z 30/22Z 30/23Z 31/00Z 31/01Z
Temp62 63 65 66 65 68 69 68 69 66 66 65 63
Dewpt51 47 44 44 42 44 45 46 45 43 43 43 42
Altim30.07 30.08 30.09 30.08 30.08 30.09 30.08 30.09 30.09 30.09 30.09 30.11 30.12
VIS10 10 10 10 10 10 10 10 10 10 10 10 10
CIG-- -- -- 55 55 65 75 70 75 75 85 -- 60
CoverSCTSCTFEWBKNBKNBKNBKNBKNBKNBKNBKNSCTBKN
FltCatVFRVFRVFRVFRVFRVFRVFRVFRVFRVFRVFRVFRVFR
WX--------------------------
WDir300330330320300280320340300320340320340
WSpd12 11 15 11 15 16 13 13 13 11 10 10 9
WGst-- 19 -- 23 23 22 22 18 -- -- -- -- --
Raw hourly METARs
KDTW 301253Z 30012KT 10SM FEW020 SCT250 17/11 A3007 RMK AO2 SLP182 T01670106
KDTW 301353Z 33011G19KT 10SM FEW030 SCT250 17/08 A3008 RMK AO2 SLP185 T01720083
KDTW 301453Z 33015KT 10SM FEW045 FEW250 18/07 A3009 RMK AO2 SLP187 T01830067 53007
KDTW 301553Z 32011G23KT 10SM BKN055 BKN250 19/07 A3008 RMK AO2 SLP183 T01890067
KDTW 301653Z 30015G23KT 10SM BKN055 18/06 A3008 RMK AO2 PK WND 32026/1600 SLP185 T01830056
KDTW 301753Z 28016G22KT 10SM BKN065 20/07 A3009 RMK AO2 SLP187 T02000067 10200 20144 53000
KDTW 301853Z 32013G22KT 10SM FEW055 BKN075 21/07 A3008 RMK AO2 SLP185 T02060072
KDTW 301953Z 34013G18KT 10SM SCT060 BKN070 20/08 A3009 RMK AO2 SLP188 T02000078
KDTW 302053Z 30013KT 10SM FEW060 BKN075 21/07 A3009 RMK AO2 SLP188 T02060072 53001
KDTW 302153Z 32011KT 10SM FEW065 BKN075 19/06 A3009 RMK AO2 SLP188 T01890061
KDTW 302253Z 34010KT 10SM SCT065 BKN085 19/06 A3009 RMK AO2 SLP190 T01890061
KDTW 302353Z 32010KT 10SM FEW065 SCT080 18/06 A3011 RMK AO2 SLP195 T01830061 10211 20183 53006
KDTW 310053Z 34009KT 10SM BKN060 17/06 A3012 RMK AO2 SLP199 T01720056



Page loaded:  01:46 UTC  |   06:46 PM Pacific  |   07:46 PM Mountain  |   08:46 PM Central  |   09:46 PM Eastern

 

ADVISORIES

FORECASTS

FORECASTS

OBSERVATIONS

USER TOOLS

ABOUT US